Time;durP1;ratioP1;P1;durP2;ratioP2;P2;SDS_P1;SDS_P2;PMS_P1;PMS_P2;Temp;Humidity;BMP_temperature;BMP_pressure;BME280_temperature;BME280_humidity;BME280_pressure;Samples;Min_cycle;Max_cycle;Signal;HPM_P1;HPM_P2
2022/11/03 00:01:00;;;;;;;78.49;61.55;;;;;;;3.58;70.62;100735.37;455651;116;922630;-76
2022/11/03 00:02:03;;;;;;;79.21;61.31;;;;;;;3.57;70.61;100730.14;455607;116;922575;-76
2022/11/03 00:03:06;;;;;;;75.42;61.42;;;;;;;3.56;70.56;100731.98;455659;116;922570;-76
2022/11/03 00:04:12;;;;;;;73.16;57.38;;;;;;;3.55;70.62;100738.38;455522;116;922544;-75
2022/11/03 00:06:38;;;;;;;65.26;53.79;;;;;;;3.54;70.41;100736.69;455428;116;922638;-76
2022/11/03 00:07:41;;;;;;;66.22;54.63;;;;;;;3.51;70.43;100742.42;455716;116;922727;-76
2022/11/03 00:08:44;;;;;;;64.89;53.70;;;;;;;3.49;70.29;100744.44;455735;116;922902;-76
2022/11/03 00:09:47;;;;;;;65.85;53.61;;;;;;;3.48;70.36;100739.20;455792;116;922615;-75
2022/11/03 00:10:52;;;;;;;61.52;52.28;;;;;;;3.47;70.24;100746.47;455581;116;923164;-75
2022/11/03 00:11:55;;;;;;;64.97;53.09;;;;;;;3.46;70.23;100744.78;455837;116;922637;-76
2022/11/03 00:12:58;;;;;;;57.80;49.84;;;;;;;3.46;70.27;100743.93;455849;116;922665;-76
2022/11/03 00:14:01;;;;;;;61.23;50.31;;;;;;;3.46;70.34;100749.32;455794;116;922832;-76
2022/11/03 00:15:05;;;;;;;67.09;51.51;;;;;;;3.47;70.48;100751.86;455841;116;922935;-75
2022/11/03 00:16:10;;;;;;;62.34;49.48;;;;;;;3.48;70.58;100752.67;456168;116;922515;-76
2022/11/03 00:17:13;;;;;;;59.06;48.67;;;;;;;3.50;70.70;100753.37;457261;116;923114;-75
2022/11/03 00:18:16;;;;;;;58.27;49.86;;;;;;;3.52;70.77;100746.81;457470;116;923003;-76
2022/11/03 00:19:19;;;;;;;58.03;49.79;;;;;;;3.56;70.80;100750.02;457414;116;922665;-76
2022/11/03 00:20:23;;;;;;;60.01;49.25;;;;;;;3.56;70.75;100758.95;457272;116;922606;-76
2022/11/03 00:21:27;;;;;;;58.72;48.64;;;;;;;3.58;70.81;100759.64;457362;116;930491;-76
2022/11/03 00:22:32;;;;;;;60.78;48.26;;;;;;;3.58;70.66;100756.94;457381;116;922493;-76
2022/11/03 00:23:40;;;;;;;59.99;48.21;;;;;;;3.58;70.57;100759.64;457210;116;931057;-76
2022/11/03 00:24:43;;;;;;;54.46;47.09;;;;;;;3.57;70.48;100757.09;457285;116;922502;-76
2022/11/03 00:25:47;;;;;;;61.44;48.90;;;;;;;3.54;70.44;100763.65;457355;116;923423;-76
2022/11/03 00:26:50;;;;;;;59.05;47.76;;;;;;;3.53;70.27;100759.26;457404;116;930448;-76
2022/11/03 00:27:55;;;;;;;57.16;47.84;;;;;;;3.50;70.30;100759.61;457535;116;922616;-76
2022/11/03 00:29:00;;;;;;;56.34;47.59;;;;;;;3.49;70.16;100757.06;457259;116;922973;-76
2022/11/03 00:30:04;;;;;;;51.42;44.13;;;;;;;3.46;70.22;100752.86;454663;116;922955;-76
2022/11/03 00:31:10;;;;;;;60.29;47.99;;;;;;;3.45;70.25;100753.87;451372;117;922568;-77
2022/11/03 00:32:20;;;;;;;55.87;46.13;;;;;;;3.55;70.34;100740.23;476411;110;947099;-76
2022/11/03 00:33:25;;;;;;;56.91;44.40;;;;;;;3.45;70.31;100750.33;466652;113;922482;-77
2022/11/03 00:34:28;;;;;;;49.37;43.02;;;;;;;3.45;70.48;100753.87;457996;113;922783;-77
2022/11/03 00:35:31;;;;;;;47.09;41.97;;;;;;;3.45;70.47;100748.48;457369;116;922497;-76
2022/11/03 00:36:36;;;;;;;46.42;41.13;;;;;;;3.47;70.61;100754.56;457331;116;922504;-76
2022/11/03 00:37:39;;;;;;;48.05;41.82;;;;;;;3.49;70.69;100751.67;457151;116;922471;-76
2022/11/03 00:38:43;;;;;;;50.47;42.03;;;;;;;3.50;70.68;100751.52;457328;116;923312;-76
2022/11/03 00:39:46;;;;;;;47.66;41.11;;;;;;;3.52;70.69;100752.20;457265;116;922669;-76
2022/11/03 00:40:54;;;;;;;45.03;40.18;;;;;;;3.55;70.71;100754.56;457353;116;922935;-76
2022/11/03 00:41:57;;;;;;;43.62;39.16;;;;;;;3.57;70.81;100757.95;456768;116;923135;-77
2022/11/03 00:43:00;;;;;;;46.19;40.70;;;;;;;3.58;70.73;100762.34;457310;116;922535;-76
2022/11/03 00:44:03;;;;;;;46.39;41.31;;;;;;;3.59;70.58;100763.15;457253;116;922643;-76
2022/11/03 00:45:08;;;;;;;45.52;40.51;;;;;;;3.58;70.45;100759.64;457341;116;922509;-77
2022/11/03 00:46:11;;;;;;;48.83;41.68;;;;;;;3.57;70.33;100766.03;457131;116;922515;-77
2022/11/03 00:47:14;;;;;;;42.68;38.26;;;;;;;3.54;70.18;100763.65;457273;116;930575;-78
2022/11/03 00:48:28;;;;;;;45.93;40.65;;;;;;;3.53;70.15;100763.84;456945;116;922865;-77
2022/11/03 00:49:32;;;;;;;43.74;39.10;;;;;;;3.50;70.17;100767.69;457127;116;922660;-77
2022/11/03 00:50:35;;;;;;;42.77;37.04;;;;;;;3.48;70.06;100768.85;457288;116;922603;-77
2022/11/03 00:51:38;;;;;;;41.01;36.53;;;;;;;3.46;70.01;100771.73;457415;115;922920;-77
2022/11/03 00:52:41;;;;;;;40.00;35.00;;;;;;;3.44;69.98;100768.34;457464;115;922483;-77
2022/11/03 00:53:59;;;;;;;40.25;36.14;;;;;;;3.42;70.02;100775.73;457512;115;922960;-76
2022/11/03 00:55:03;;;;;;;38.14;34.36;;;;;;;3.40;69.95;100780.47;457352;116;922553;-76
2022/11/03 00:56:08;;;;;;;39.01;34.95;;;;;;;3.38;69.93;100776.23;457428;115;922593;-76
2022/11/03 00:57:11;;;;;;;38.28;34.38;;;;;;;3.36;69.96;100779.94;457129;116;930512;-76
2022/11/03 00:58:14;;;;;;;39.05;34.93;;;;;;;3.34;70.09;100775.73;457454;115;922559;-77
2022/11/03 00:59:17;;;;;;;39.07;34.44;;;;;;;3.34;70.02;100781.97;457461;115;922683;-77
2022/11/03 01:00:20;;;;;;;41.36;35.64;;;;;;;3.33;69.98;100782.97;457485;116;922958;-76
2022/11/03 01:01:25;;;;;;;37.28;33.44;;;;;;;3.32;70.01;100786.66;457474;115;922673;-74
2022/11/03 01:02:28;;;;;;;38.93;35.09;;;;;;;3.33;70.11;100776.73;457259;116;922486;-76
2022/11/03 01:03:33;;;;;;;37.30;32.71;;;;;;;3.32;70.21;100770.50;457432;115;922425;-75
2022/11/03 01:07:20;;;;;;;38.88;35.00;;;;;;;3.38;70.48;100778.94;457268;116;922624;-76
2022/11/03 01:08:23;;;;;;;37.91;34.17;;;;;;;3.39;70.50;100784.17;457285;115;922525;-76
2022/11/03 01:09:31;;;;;;;37.30;33.78;;;;;;;3.40;70.52;100779.63;457242;115;923011;-77
2022/11/03 01:10:36;;;;;;;37.13;33.29;;;;;;;3.40;70.57;100779.63;457286;115;922580;-77
2022/11/03 01:11:44;;;;;;;39.11;34.91;;;;;;;3.41;70.65;100782.17;457293;115;922517;-77
2022/11/03 01:12:47;;;;;;;39.56;35.58;;;;;;;3.44;70.63;100789.06;457295;116;922501;-76
2022/11/03 01:13:50;;;;;;;37.14;33.73;;;;;;;3.45;70.62;100786.21;457450;115;922477;-76
2022/11/03 01:14:53;;;;;;;39.48;35.38;;;;;;;3.46;70.64;100779.82;457529;115;922467;-76
2022/11/03 01:16:00;;;;;;;38.16;34.38;;;;;;;3.47;70.67;100781.52;457784;114;922914;-76
2022/11/03 01:17:09;;;;;;;37.53;33.91;;;;;;;3.48;70.60;100774.24;465346;114;922488;-76
2022/11/03 01:18:12;;;;;;;37.52;33.76;;;;;;;3.48;70.58;100777.78;458509;114;922544;-76
2022/11/03 01:19:15;;;;;;;37.38;33.83;;;;;;;3.49;70.54;100776.78;457455;116;922622;-77
2022/11/03 01:20:18;;;;;;;39.88;34.58;;;;;;;3.49;70.44;100781.33;457437;116;922975;-77
2022/11/03 01:21:22;;;;;;;38.76;34.74;;;;;;;3.48;70.26;100774.24;457454;116;922586;-77
2022/11/03 01:22:25;;;;;;;37.74;33.85;;;;;;;3.47;70.26;100789.60;457468;116;922675;-77
2022/11/03 01:23:28;;;;;;;38.73;34.69;;;;;;;3.44;70.18;100789.91;457558;116;922488;-77
2022/11/03 01:24:31;;;;;;;38.86;34.81;;;;;;;3.42;70.06;100797.30;457497;116;922545;-77
2022/11/03 01:25:35;;;;;;;38.65;34.46;;;;;;;3.41;69.99;100790.25;457391;116;922506;-77
2022/11/03 01:26:38;;;;;;;38.29;34.52;;;;;;;3.39;70.05;100789.56;457537;116;922646;-77
2022/11/03 01:27:41;;;;;;;38.39;34.41;;;;;;;3.38;69.88;100795.10;457515;116;922589;-77
2022/11/03 01:28:45;;;;;;;37.97;34.18;;;;;;;3.36;69.84;100803.37;457451;116;922518;-76
2022/11/03 01:29:48;;;;;;;37.95;33.96;;;;;;;3.34;69.81;100799.98;459139;113;922948;-76
2022/11/03 01:30:51;;;;;;;39.13;34.98;;;;;;;3.34;69.84;100797.30;466517;113;922526;-74
2022/11/03 01:31:54;;;;;;;38.03;33.92;;;;;;;3.33;69.90;100800.98;465599;113;922612;-77
2022/11/03 01:32:57;;;;;;;38.44;34.55;;;;;;;3.32;69.90;100794.75;462275;114;922669;-76
2022/11/03 01:34:00;;;;;;;36.99;33.66;;;;;;;3.32;69.85;100796.59;463515;114;922549;-77
2022/11/03 01:35:03;;;;;;;36.60;33.08;;;;;;;3.30;69.99;100796.78;465535;113;922475;-76
2022/11/03 01:36:06;;;;;;;34.19;31.15;;;;;;;3.31;69.94;100797.59;465419;114;922687;-76
2022/11/03 01:37:10;;;;;;;35.17;31.76;;;;;;;3.31;70.05;100800.30;465411;113;922595;-77
2022/11/03 01:38:13;;;;;;;34.57;31.39;;;;;;;3.32;70.14;100804.69;465420;114;930471;-76
2022/11/03 01:39:18;;;;;;;33.46;30.17;;;;;;;3.34;70.13;100799.98;465545;114;922655;-77
2022/11/03 01:40:21;;;;;;;33.33;30.40;;;;;;;3.34;70.17;100794.59;465315;114;922549;-76
2022/11/03 01:41:26;;;;;;;32.33;29.53;;;;;;;3.34;70.19;100800.83;465486;114;922526;-76
2022/11/03 01:42:29;;;;;;;32.51;29.22;;;;;;;3.36;70.25;100795.29;465300;114;923087;-76
2022/11/03 01:43:32;;;;;;;28.57;26.06;;;;;;;3.38;70.27;100800.49;465465;113;922579;-76
2022/11/03 01:44:45;;;;;;;31.52;28.62;;;;;;;3.39;70.29;100796.80;465351;113;922479;-77
2022/11/03 01:45:51;;;;;;;30.87;28.07;;;;;;;3.39;70.16;100788.71;465072;113;922636;-76
2022/11/03 01:46:58;;;;;;;29.99;27.36;;;;;;;3.38;70.14;100793.25;465216;114;923430;-76
2022/11/03 01:48:01;;;;;;;29.54;27.08;;;;;;;3.37;69.99;100788.87;465186;113;922586;-76
2022/11/03 01:49:22;;;;;;;32.71;29.86;;;;;;;3.35;69.95;100788.20;465360;114;923053;-76
2022/11/03 01:50:25;;;;;;;28.22;25.77;;;;;;;3.33;69.81;100793.75;462945;114;922537;-76
2022/11/03 01:51:31;;;;;;;28.41;26.14;;;;;;;3.30;69.67;100791.39;457311;115;922882;-76
2022/11/03 01:52:50;;;;;;;27.61;25.26;;;;;;;3.28;69.66;100795.25;448555;118;922575;-76
2022/11/03 01:53:55;;;;;;;26.92;24.72;;;;;;;3.25;69.66;100795.58;457147;116;922580;-76
2022/11/03 01:55:01;;;;;;;28.30;25.66;;;;;;;3.22;69.55;100802.13;457146;116;922683;-76
2022/11/03 01:56:05;;;;;;;25.16;23.26;;;;;;;3.21;69.61;100796.89;445524;118;922817;-76
2022/11/03 01:57:11;;;;;;;24.84;22.96;;;;;;;3.18;69.58;100800.77;457317;116;922702;-76
2022/11/03 01:58:18;;;;;;;24.26;22.38;;;;;;;3.16;69.57;100804.62;448564;118;922555;-76
2022/11/03 01:59:23;;;;;;;24.66;22.68;;;;;;;3.15;69.70;100808.31;457161;115;922679;-76
2022/11/03 02:00:27;;;;;;;23.94;21.94;;;;;;;3.14;69.73;100809.34;448493;118;922462;-75
2022/11/03 02:01:30;;;;;;;22.85;21.15;;;;;;;3.12;69.75;100811.34;457185;116;922555;-76
2022/11/03 02:02:34;;;;;;;23.84;21.88;;;;;;;3.11;69.68;100806.95;448660;118;922726;-75
2022/11/03 02:03:41;;;;;;;23.66;21.93;;;;;;;3.11;69.67;100802.41;457249;116;922492;-75
2022/11/03 02:04:44;;;;;;;24.10;21.99;;;;;;;3.09;69.70;100803.59;448530;118;923073;-75
2022/11/03 02:05:49;;;;;;;22.88;21.12;;;;;;;3.10;69.75;100802.56;448741;118;922827;-76
2022/11/03 02:07:08;;;;;;;23.73;21.95;;;;;;;3.10;69.83;100803.41;457109;116;922615;-76
2022/11/03 02:08:17;;;;;;;22.99;21.29;;;;;;;3.09;69.77;100804.41;457206;116;923017;-75
2022/11/03 02:09:20;;;;;;;22.25;20.59;;;;;;;3.09;69.84;100806.30;457124;115;922616;-76
2022/11/03 02:10:24;;;;;;;21.26;19.81;;;;;;;3.08;69.75;100808.14;457375;115;922483;-77
2022/11/03 02:12:48;;;;;;;23.20;21.29;;;;;;;3.07;69.82;100805.59;448585;118;930533;-76
2022/11/03 02:13:51;;;;;;;21.93;20.27;;;;;;;3.05;69.68;100810.28;456907;114;922578;-76
2022/11/03 02:15:00;;;;;;;23.34;21.66;;;;;;;3.05;69.69;100807.59;455209;116;923417;-77
2022/11/03 02:16:04;;;;;;;21.02;19.59;;;;;;;3.03;69.82;100812.31;451030;116;922598;-76
2022/11/03 02:17:10;;;;;;;21.59;19.87;;;;;;;3.03;69.86;100812.31;457291;116;922620;-76
2022/11/03 02:18:15;;;;;;;21.90;20.22;;;;;;;3.02;69.86;100814.16;457104;116;922578;-76
2022/11/03 02:19:34;;;;;;;21.63;20.07;;;;;;;3.02;69.85;100810.63;451858;117;922734;-76
2022/11/03 02:20:38;;;;;;;21.89;20.23;;;;;;;3.01;69.85;100814.31;452874;116;923091;-76
2022/11/03 02:21:45;;;;;;;20.66;19.00;;;;;;;2.98;69.85;100810.08;457192;115;922610;-76
2022/11/03 02:23:00;;;;;;;20.19;18.73;;;;;;;2.98;69.96;100803.88;456423;115;930503;-76
2022/11/03 02:24:06;;;;;;;21.89;19.64;;;;;;;2.99;70.06;100810.92;457142;116;923168;-76
2022/11/03 02:25:35;;;;;;;19.62;18.22;;;;;;;2.99;70.16;100805.54;457194;116;922514;-76
2022/11/03 02:26:41;;;;;;;20.22;18.53;;;;;;;2.99;70.10;100810.92;457135;116;922455;-77
2022/11/03 02:27:45;;;;;;;20.88;19.30;;;;;;;2.99;70.29;100810.92;457161;116;922547;-74
2022/11/03 02:28:48;;;;;;;19.96;18.16;;;;;;;2.99;70.28;100816.31;457251;116;922604;-76
2022/11/03 02:29:51;;;;;;;19.56;17.99;;;;;;;2.99;70.32;100811.77;459354;114;922703;-77
2022/11/03 02:31:15;;;;;;;19.39;17.98;;;;;;;3.00;70.39;100813.47;465366;113;922519;-77
2022/11/03 02:32:27;;;;;;;19.39;17.80;;;;;;;3.01;70.48;100812.47;459159;114;922566;-76
2022/11/03 02:33:36;;;;;;;18.62;17.22;;;;;;;3.02;70.43;100819.55;455132;116;922653;-76
2022/11/03 02:34:43;;;;;;;20.08;18.48;;;;;;;3.02;70.62;100816.86;456956;115;922597;-76
2022/11/03 02:35:52;;;;;;;19.31;17.90;;;;;;;3.05;70.64;100821.06;456566;115;922876;-77
2022/11/03 02:37:11;;;;;;;19.02;17.22;;;;;;;3.07;70.67;100821.77;457192;115;922510;-77
2022/11/03 02:38:17;;;;;;;17.98;16.63;;;;;;;3.09;70.72;100815.19;457178;115;922713;-77
2022/11/03 02:39:30;;;;;;;18.12;16.65;;;;;;;3.11;70.75;100813.19;457223;116;922635;-77
2022/11/03 02:40:36;;;;;;;17.16;15.94;;;;;;;3.13;70.71;100823.81;456977;115;922875;-75
2022/11/03 02:41:40;;;;;;;16.91;15.76;;;;;;;3.15;70.80;100821.78;456327;115;922586;-76
2022/11/03 02:42:47;;;;;;;18.56;17.06;;;;;;;3.14;70.68;100820.94;457263;115;922894;-76
2022/11/03 02:43:53;;;;;;;17.75;16.42;;;;;;;3.15;70.49;100827.17;457212;116;922523;-76
2022/11/03 02:45:00;;;;;;;18.47;16.91;;;;;;;3.13;70.38;100818.42;457232;116;922588;-76
2022/11/03 02:46:05;;;;;;;18.78;17.12;;;;;;;3.12;70.35;100822.97;457262;116;922687;-76
2022/11/03 02:47:11;;;;;;;18.93;16.78;;;;;;;3.11;70.32;100828.50;457248;116;922562;-76
2022/11/03 02:48:17;;;;;;;18.79;17.45;;;;;;;3.12;70.30;100827.50;457222;116;923448;-76
2022/11/03 02:49:20;;;;;;;19.31;17.76;;;;;;;3.10;70.16;100824.97;457191;116;922590;-75
2022/11/03 02:50:32;;;;;;;19.86;18.36;;;;;;;3.10;70.15;100826.81;459361;114;922438;-76
2022/11/03 02:51:35;;;;;;;19.61;18.17;;;;;;;3.09;70.06;100830.53;465349;114;922515;-77
2022/11/03 02:52:46;;;;;;;19.71;18.23;;;;;;;3.07;70.11;100827.99;465567;113;922945;-76
2022/11/03 02:54:04;;;;;;;20.15;18.68;;;;;;;3.06;70.04;100828.14;465462;114;922927;-76
2022/11/03 02:55:14;;;;;;;19.37;17.87;;;;;;;3.06;69.97;100828.14;465172;113;922464;-78
2022/11/03 02:56:20;;;;;;;19.06;17.50;;;;;;;3.04;70.05;100824.75;465125;113;923009;-76
2022/11/03 02:57:27;;;;;;;18.71;17.33;;;;;;;3.04;70.14;100819.38;465344;114;922526;-76
2022/11/03 02:58:42;;;;;;;18.28;16.83;;;;;;;3.04;70.19;100824.75;465356;114;922541;-76
2022/11/03 02:59:55;;;;;;;18.83;17.33;;;;;;;3.05;70.29;100823.75;465331;114;922621;-76
2022/11/03 03:01:02;;;;;;;18.51;17.17;;;;;;;3.06;70.31;100822.75;465232;113;922474;-76
2022/11/03 03:02:12;;;;;;;19.10;17.54;;;;;;;3.06;70.42;100826.30;465147;113;922835;-75
2022/11/03 03:03:19;;;;;;;19.98;18.21;;;;;;;3.06;70.33;100823.61;465353;114;922682;-76
2022/11/03 03:04:31;;;;;;;17.77;16.31;;;;;;;3.07;70.36;100825.30;465261;113;922607;-76
2022/11/03 03:05:36;;;;;;;19.54;17.78;;;;;;;3.07;70.27;100821.77;465442;114;922521;-76
2022/11/03 03:06:43;;;;;;;18.65;17.06;;;;;;;3.07;70.22;100819.91;465455;113;922621;-76
2022/11/03 03:07:50;;;;;;;17.51;15.90;;;;;;;3.07;70.28;100819.06;465424;113;922580;-76
2022/11/03 03:08:56;;;;;;;17.71;16.32;;;;;;;3.08;70.28;100816.22;465439;114;922522;-76
2022/11/03 03:10:06;;;;;;;17.62;16.28;;;;;;;3.08;70.37;100816.22;465086;113;922512;-76
2022/11/03 03:11:11;;;;;;;17.11;15.73;;;;;;;3.10;70.27;100821.42;463455;114;922431;-75
2022/11/03 03:12:18;;;;;;;18.51;17.11;;;;;;;3.10;70.32;100821.42;463438;114;922659;-76
2022/11/03 03:13:23;;;;;;;17.83;16.45;;;;;;;3.10;70.47;100824.12;463451;114;922531;-75
2022/11/03 03:14:29;;;;;;;18.26;16.70;;;;;;;3.11;70.42;100828.50;463474;114;922690;-76
2022/11/03 03:16:09;;;;;;;17.67;16.37;;;;;;;3.11;70.35;100826.66;463366;114;922588;-76
2022/11/03 03:17:28;;;;;;;16.78;15.55;;;;;;;3.12;70.43;100827.50;457241;116;922499;-75
2022/11/03 03:18:50;;;;;;;15.79;14.67;;;;;;;3.10;70.26;100826.81;457297;115;922594;-75
2022/11/03 03:20:02;;;;;;;16.75;15.47;;;;;;;3.07;70.42;100821.77;457171;116;922462;-76
2022/11/03 03:21:12;;;;;;;16.64;15.43;;;;;;;3.06;70.41;100826.30;457202;116;922420;-76
2022/11/03 03:22:28;;;;;;;17.01;15.63;;;;;;;3.04;70.49;100825.60;457155;115;922657;-76
2022/11/03 03:23:37;;;;;;;16.60;15.26;;;;;;;3.03;70.50;100818.55;457200;116;922921;-75
2022/11/03 03:24:43;;;;;;;17.66;16.08;;;;;;;3.03;70.55;100818.55;457208;115;922519;-75
2022/11/03 03:25:56;;;;;;;17.47;16.15;;;;;;;3.03;70.61;100813.16;457189;115;922607;-76
2022/11/03 03:27:02;;;;;;;16.47;15.17;;;;;;;3.04;70.61;100817.52;457231;115;923006;-76
2022/11/03 03:28:09;;;;;;;17.23;15.69;;;;;;;3.06;70.67;100822.75;457212;116;922561;-77
2022/11/03 03:29:28;;;;;;;16.70;15.18;;;;;;;3.05;70.52;100821.91;457243;115;922557;-77
2022/11/03 03:30:33;;;;;;;17.07;15.78;;;;;;;3.05;70.61;100826.45;463005;114;922834;-76
2022/11/03 03:31:39;;;;;;;16.26;14.96;;;;;;;3.06;70.58;100830.84;463475;114;922535;-75
2022/11/03 03:32:46;;;;;;;17.38;16.08;;;;;;;3.05;70.60;100826.45;457184;115;922527;-76
2022/11/03 03:33:51;;;;;;;17.60;15.99;;;;;;;3.05;70.64;100826.45;457226;114;923009;-76
2022/11/03 03:34:59;;;;;;;18.62;17.09;;;;;;;3.05;70.51;100831.84;457783;115;923079;-76
2022/11/03 03:36:06;;;;;;;16.78;15.52;;;;;;;3.05;70.46;100829.14;457254;116;922521;-77
2022/11/03 03:37:11;;;;;;;17.66;16.34;;;;;;;3.04;70.41;100825.60;457255;116;922565;-76
2022/11/03 03:38:18;;;;;;;18.31;16.84;;;;;;;3.03;70.41;100832.02;457178;116;922924;-76
2022/11/03 03:39:25;;;;;;;18.07;16.65;;;;;;;3.03;70.37;100828.48;457048;115;922881;-75
2022/11/03 03:40:31;;;;;;;18.12;16.61;;;;;;;3.02;70.23;100833.02;457233;116;922592;-76
2022/11/03 03:41:36;;;;;;;17.62;16.27;;;;;;;3.00;70.21;100829.63;457253;116;922660;-75
2022/11/03 03:42:41;;;;;;;17.99;16.47;;;;;;;3.00;70.22;100831.48;457298;115;922577;-76
2022/11/03 03:43:44;;;;;;;16.83;15.49;;;;;;;3.00;70.28;100839.55;457216;115;930480;-76
2022/11/03 03:44:48;;;;;;;16.39;15.18;;;;;;;2.99;70.36;100841.41;457388;116;922474;-76
2022/11/03 03:45:54;;;;;;;17.32;15.88;;;;;;;3.01;70.29;100838.56;457382;115;922930;-76
2022/11/03 03:47:00;;;;;;;18.14;16.57;;;;;;;3.01;70.29;100838.56;457203;116;922580;-75
2022/11/03 03:48:05;;;;;;;17.21;15.91;;;;;;;3.01;70.25;100836.71;457189;116;922533;-76
2022/11/03 03:49:09;;;;;;;17.01;15.66;;;;;;;3.00;70.22;100835.02;457233;116;922574;-76
2022/11/03 03:50:12;;;;;;;16.49;15.18;;;;;;;3.01;70.21;100841.25;457951;114;922495;-77
2022/11/03 03:51:19;;;;;;;17.12;15.86;;;;;;;3.00;70.30;100835.02;465087;114;922618;-76
2022/11/03 03:52:23;;;;;;;17.47;16.12;;;;;;;3.01;70.21;100844.80;464876;114;922509;-76
2022/11/03 03:53:28;;;;;;;17.94;16.58;;;;;;;3.00;70.26;100845.80;464954;114;923192;-75
2022/11/03 03:54:32;;;;;;;17.59;16.31;;;;;;;2.99;70.12;100840.55;464874;114;923021;-75
2022/11/03 03:55:41;;;;;;;18.04;16.67;;;;;;;2.98;70.16;100846.97;465112;114;922621;-75
2022/11/03 03:57:02;;;;;;;16.62;15.42;;;;;;;2.96;70.05;100844.43;464970;114;922665;-76
2022/11/03 03:58:06;;;;;;;16.70;15.43;;;;;;;2.96;70.08;100836.35;464885;114;922564;-76
2022/11/03 03:59:10;;;;;;;16.48;15.31;;;;;;;2.94;70.13;100841.04;464952;114;922576;-77
2022/11/03 04:00:14;;;;;;;17.20;15.79;;;;;;;2.94;70.31;100847.27;465123;114;922651;-75
2022/11/03 04:01:18;;;;;;;16.19;14.82;;;;;;;2.96;70.36;100844.43;465002;114;922509;-76
2022/11/03 04:02:21;;;;;;;16.96;15.58;;;;;;;2.96;70.43;100847.13;465138;114;922745;-75
2022/11/03 04:03:25;;;;;;;16.56;15.23;;;;;;;2.97;70.40;100843.43;465174;114;922878;-75
2022/11/03 04:04:28;;;;;;;16.84;15.47;;;;;;;2.98;70.38;100846.97;464988;114;923208;-76
2022/11/03 04:05:31;;;;;;;16.22;15.02;;;;;;;2.98;70.34;100841.59;465102;114;922784;-76
2022/11/03 04:06:34;;;;;;;17.31;15.86;;;;;;;2.98;70.39;100844.28;461662;114;923268;-76
2022/11/03 04:07:46;;;;;;;16.78;15.41;;;;;;;2.98;70.32;100846.97;457431;116;922501;-75
2022/11/03 04:08:49;;;;;;;17.31;16.02;;;;;;;2.97;70.32;100848.81;457193;116;922530;-75
2022/11/03 04:09:52;;;;;;;16.44;14.99;;;;;;;2.97;70.37;100848.81;457423;115;922988;-75
2022/11/03 04:23:16;;;;;;;16.36;15.00;;;;;;;2.83;70.75;100866.39;464106;114;922678;-77
2022/11/03 04:24:19;;;;;;;16.50;15.26;;;;;;;2.81;70.76;100867.56;464233;114;923245;-76
2022/11/03 04:25:22;;;;;;;16.30;15.07;;;;;;;2.80;70.89;100871.25;464261;114;930338;-75
2022/11/03 04:26:26;;;;;;;15.76;14.57;;;;;;;2.81;70.90;100867.56;464325;114;922491;-76
2022/11/03 04:27:33;;;;;;;16.43;15.18;;;;;;;2.81;70.91;100875.64;464129;114;922493;-75
2022/11/03 04:28:36;;;;;;;16.87;15.40;;;;;;;2.80;70.87;100876.64;464052;114;922553;-76
2022/11/03 04:29:39;;;;;;;16.71;15.28;;;;;;;2.78;70.86;100879.48;464086;114;922642;-75
2022/11/03 04:30:42;;;;;;;21.13;15.64;;;;;;;2.78;70.82;100882.17;460212;115;923002;-76
2022/11/03 04:31:45;;;;;;;16.31;14.99;;;;;;;2.76;70.88;100884.17;460148;115;922513;-76
2022/11/03 04:32:50;;;;;;;15.49;14.18;;;;;;;2.76;70.94;100884.17;457372;116;923184;-76
2022/11/03 04:33:54;;;;;;;17.01;15.56;;;;;;;2.75;70.97;100882.50;458876;114;922862;-76
2022/11/03 04:34:58;;;;;;;16.90;15.48;;;;;;;2.76;70.98;100872.55;464595;113;922506;-76
2022/11/03 04:36:05;;;;;;;16.22;14.96;;;;;;;2.75;70.99;100882.50;464420;113;922544;-75
2022/11/03 04:37:12;;;;;;;17.21;15.81;;;;;;;2.77;71.10;100879.62;464095;113;925453;-75
2022/11/03 04:38:18;;;;;;;15.98;14.71;;;;;;;2.79;71.10;100872.25;464224;113;922597;-76
2022/11/03 04:39:21;;;;;;;17.81;15.30;;;;;;;2.79;71.17;100877.64;464373;114;923671;-76
2022/11/03 04:40:26;;;;;;;16.71;15.31;;;;;;;2.82;71.38;100880.00;464460;114;923404;-76
2022/11/03 04:41:32;;;;;;;16.31;15.06;;;;;;;2.85;71.39;100879.70;464436;114;922896;-76
2022/11/03 04:42:35;;;;;;;15.64;14.29;;;;;;;2.88;71.45;100884.76;464443;114;922571;-75
2022/11/03 04:43:38;;;;;;;15.47;14.30;;;;;;;2.91;71.57;100884.46;464600;113;922523;-77
2022/11/03 04:44:41;;;;;;;16.63;15.25;;;;;;;2.94;71.62;100886.83;464471;114;923182;-76
2022/11/03 04:45:48;;;;;;;16.73;15.24;;;;;;;2.96;71.61;100882.14;464373;114;922579;-76
2022/11/03 04:46:53;;;;;;;17.64;16.15;;;;;;;2.99;71.55;100880.95;464452;113;922602;-76
2022/11/03 04:47:59;;;;;;;18.08;16.52;;;;;;;3.01;71.65;100893.27;464338;114;922949;-75
2022/11/03 04:49:04;;;;;;;18.59;16.96;;;;;;;3.04;71.52;100887.56;464365;114;922733;-76
2022/11/03 04:50:12;;;;;;;18.37;16.81;;;;;;;3.06;71.53;100890.10;464283;114;922563;-76
2022/11/03 04:51:18;;;;;;;19.73;18.12;;;;;;;3.06;71.45;100888.26;447247;118;922453;-76
2022/11/03 04:52:22;;;;;;;18.51;17.11;;;;;;;3.07;71.39;100891.80;441689;120;922601;-76
2022/11/03 04:53:28;;;;;;;18.21;16.79;;;;;;;3.08;71.29;100891.65;441749;120;922885;-77
2022/11/03 04:54:31;;;;;;;18.01;16.57;;;;;;;3.09;71.25;100892.50;441611;120;930484;-76
2022/11/03 04:55:34;;;;;;;18.60;17.09;;;;;;;3.10;71.23;100891.47;441901;120;922781;-76
2022/11/03 04:56:39;;;;;;;17.72;16.13;;;;;;;3.10;71.00;100899.55;441885;120;922778;-76
2022/11/03 04:57:43;;;;;;;18.76;17.16;;;;;;;3.09;70.96;100893.31;441741;120;922505;-74
2022/11/03 04:58:47;;;;;;;19.06;17.48;;;;;;;3.08;70.74;100899.73;441815;120;922905;-76
2022/11/03 04:59:50;;;;;;;19.20;17.74;;;;;;;3.08;70.71;100902.42;441839;120;922925;-76
2022/11/03 05:00:56;;;;;;;19.26;17.71;;;;;;;3.06;70.52;100900.88;441752;120;930499;-75
2022/11/03 05:02:00;;;;;;;19.49;17.73;;;;;;;3.06;70.45;100898.18;441676;120;930656;-75
2022/11/03 05:03:03;;;;;;;18.48;17.10;;;;;;;3.04;70.51;100903.72;441822;118;922528;-76
2022/11/03 05:04:15;;;;;;;19.16;17.65;;;;;;;3.03;70.47;100895.82;441889;120;922708;-75
2022/11/03 05:05:21;;;;;;;19.15;17.53;;;;;;;3.02;70.46;100896.82;434215;122;922685;-76
2022/11/03 05:06:27;;;;;;;16.94;15.65;;;;;;;3.01;70.42;100900.51;451393;115;922972;-75
2022/11/03 05:07:34;;;;;;;18.33;16.93;;;;;;;3.01;70.55;100892.43;458757;115;922516;-76
2022/11/03 05:08:37;;;;;;;17.61;16.22;;;;;;;3.02;70.59;100896.82;458711;115;922534;-77
2022/11/03 05:09:40;;;;;;;17.09;15.81;;;;;;;3.02;70.71;100894.13;458908;115;922450;-76
2022/11/03 05:10:46;;;;;;;17.59;16.24;;;;;;;3.04;70.63;100897.48;458703;115;922621;-76
2022/11/03 05:11:49;;;;;;;16.65;15.24;;;;;;;3.04;70.70;100900.17;458733;115;922410;-77
2022/11/03 05:12:58;;;;;;;21.95;16.23;;;;;;;3.05;70.78;100896.48;458918;115;923005;-74
2022/11/03 05:14:08;;;;;;;17.88;16.48;;;;;;;3.06;70.82;100904.42;458658;115;922538;-75
2022/11/03 05:15:24;;;;;;;16.98;15.41;;;;;;;3.08;70.92;100909.66;459129;113;922550;-76
2022/11/03 05:16:27;;;;;;;16.84;15.54;;;;;;;3.08;70.93;100907.81;460664;114;922683;-77
2022/11/03 05:17:30;;;;;;;17.46;16.16;;;;;;;3.10;70.94;100903.09;464144;114;922547;-76
2022/11/03 05:18:36;;;;;;;15.62;14.52;;;;;;;3.09;70.96;100909.47;464070;114;930548;-76